createdAt,value
2014-07-15T00:00:05.000Z,43
2014-07-15T00:00:22.593Z,43
2014-07-15T00:00:40.814Z,43
2014-07-15T00:00:59.049Z,43
2014-07-15T00:01:17.267Z,43
2014-07-15T00:01:34.861Z,43
2014-07-15T00:01:53.097Z,43
2014-07-15T00:02:11.316Z,43
2014-07-15T00:02:29.535Z,43
2014-07-15T00:02:46.506Z,43
2014-07-15T00:03:04.724Z,43
2014-07-15T00:03:22.318Z,43
2014-07-15T00:03:40.537Z,43
2014-07-15T00:03:58.273Z,43
2014-07-15T00:04:15.867Z,43
2014-07-15T00:04:34.086Z,43
2014-07-15T00:04:52.307Z,43
2014-07-15T00:05:10.541Z,43
2014-07-15T00:05:28.135Z,43
2014-07-15T00:05:45.855Z,43
2014-07-15T00:06:03.449Z,43
2014-07-15T00:06:21.684Z,43
2014-07-15T00:06:39.277Z,43
2014-07-15T00:06:56.873Z,43
2014-07-15T00:07:15.092Z,43
2014-07-15T00:07:32.686Z,43
2014-07-15T00:07:50.279Z,43
2014-07-15T00:08:08.516Z,43
2014-07-15T00:08:26.734Z,43
2014-07-15T00:08:44.953Z,43
2014-07-15T00:09:02.549Z,43
2014-07-15T00:09:20.768Z,43
2014-07-15T00:09:38.361Z,43
2014-07-15T00:09:55.330Z,43
2014-07-15T00:10:12.926Z,43
2014-07-15T00:10:31.145Z,43
2014-07-15T00:10:48.738Z,43
2014-07-15T00:11:06.959Z,43
2014-07-15T00:11:23.944Z,43
2014-07-15T00:11:41.537Z,43
2014-07-15T00:11:59.756Z,43
2014-07-15T00:12:16.727Z,43
2014-07-15T00:12:34.946Z,43
2014-07-15T00:12:51.914Z,44
2014-07-15T00:13:10.135Z,43
2014-07-15T00:13:28.494Z,44
2014-07-15T00:13:46.713Z,44
2014-07-15T00:14:03.682Z,44
2014-07-15T00:14:21.278Z,44
2014-07-15T00:14:39.512Z,44
2014-07-15T00:14:57.731Z,44
2014-07-15T00:15:16.092Z,44
2014-07-15T00:15:34.311Z,44
2014-07-15T00:15:52.530Z,44
2014-07-15T00:16:10.764Z,44
2014-07-15T00:16:28.985Z,44
2014-07-15T00:16:47.204Z,44
2014-07-15T00:17:04.797Z,44
2014-07-15T00:17:23.018Z,44
2014-07-15T00:17:41.252Z,44
2014-07-15T00:17:58.846Z,44
2014-07-15T00:18:16.440Z,44
2014-07-15T00:18:34.036Z,44
2014-07-15T00:18:52.254Z,44
2014-07-15T00:19:10.489Z,44
2014-07-15T00:19:28.085Z,44
2014-07-15T00:19:45.678Z,44
2014-07-15T00:20:02.631Z,44
2014-07-15T00:20:20.866Z,44
2014-07-15T00:20:39.087Z,44
2014-07-15T00:20:57.321Z,44
2014-07-15T00:21:13.649Z,44
2014-07-15T00:21:31.385Z,44
2014-07-15T00:21:48.354Z,44
2014-07-15T00:22:05.948Z,44
2014-07-15T00:22:23.885Z,44
2014-07-15T00:22:41.481Z,44
2014-07-15T00:22:59.700Z,44
2014-07-15T00:23:17.934Z,44
2014-07-15T00:23:36.153Z,44
2014-07-15T00:23:54.374Z,44
2014-07-15T00:24:11.343Z,44
2014-07-15T00:24:28.936Z,44
2014-07-15T00:24:47.157Z,44
2014-07-15T00:25:04.751Z,44
2014-07-15T00:25:21.235Z,44
2014-07-15T00:25:39.454Z,44
2014-07-15T00:25:57.690Z,44
2014-07-15T00:26:14.659Z,44
2014-07-15T00:26:32.393Z,44
2014-07-15T00:26:49.364Z,44
2014-07-15T00:27:07.083Z,44
2014-07-15T00:27:24.817Z,44
2014-07-15T00:27:43.036Z,44
2014-07-15T00:28:00.007Z,44
2014-07-15T00:28:18.366Z,44
2014-07-15T00:28:36.585Z,44
2014-07-15T00:28:54.181Z,44
2014-07-15T00:29:12.540Z,44
2014-07-15T00:29:30.759Z,44
2014-07-15T00:29:48.353Z,44
2014-07-15T00:30:05.948Z,44
2014-07-15T00:30:22.917Z,44
2014-07-15T00:30:39.870Z,44
2014-07-15T00:30:56.841Z,44
2014-07-15T00:31:15.060Z,44
2014-07-15T00:31:33.278Z,44
2014-07-15T00:31:51.497Z,44
2014-07-15T00:32:09.718Z,44
2014-07-15T00:32:27.952Z,44
2014-07-15T00:32:46.171Z,44
2014-07-15T00:33:04.392Z,44
2014-07-15T00:33:21.986Z,44
2014-07-15T00:33:39.579Z,44
2014-07-15T00:33:57.173Z,44
2014-07-15T00:34:14.144Z,44
2014-07-15T00:34:32.363Z,44
2014-07-15T00:34:50.581Z,44
2014-07-15T00:35:08.177Z,44
2014-07-15T00:35:26.396Z,44
2014-07-15T00:35:43.990Z,44
2014-07-15T00:36:01.599Z,44
2014-07-15T00:36:19.820Z,44
2014-07-15T00:36:37.413Z,44
2014-07-15T00:36:55.632Z,44
2014-07-15T00:37:13.212Z,44
2014-07-15T00:37:30.806Z,44
2014-07-15T00:37:47.775Z,44
2014-07-15T00:38:05.371Z,44
2014-07-15T00:38:22.964Z,44
2014-07-15T00:38:41.183Z,44
2014-07-15T00:38:59.542Z,44
2014-07-15T00:39:16.654Z,44
2014-07-15T00:39:34.873Z,44
2014-07-15T00:39:51.841Z,44
2014-07-15T00:40:10.060Z,44
2014-07-15T00:40:27.656Z,44
2014-07-15T00:40:45.875Z,44
2014-07-15T00:41:03.468Z,44
2014-07-15T00:41:20.439Z,44
2014-07-15T00:41:38.658Z,44
2014-07-15T00:41:56.877Z,44
2014-07-15T00:42:15.236Z,44
2014-07-15T00:42:33.457Z,44
2014-07-15T00:42:51.816Z,44
2014-07-15T00:43:09.410Z,44
2014-07-15T00:43:27.631Z,44
2014-07-15T00:43:45.224Z,44
2014-07-15T00:44:02.818Z,44
2014-07-15T00:44:21.037Z,44
2014-07-15T00:44:39.258Z,44
2014-07-15T00:44:57.476Z,44
2014-07-15T00:45:15.070Z,44
2014-07-15T00:45:33.431Z,44
2014-07-15T00:45:51.650Z,44
2014-07-15T00:46:09.244Z,44
2014-07-15T00:46:26.978Z,44
2014-07-15T00:46:44.574Z,44
2014-07-15T00:47:02.793Z,44
2014-07-15T00:47:19.902Z,45
2014-07-15T00:47:37.498Z,44
2014-07-15T00:47:55.092Z,44
2014-07-15T00:48:13.310Z,45
2014-07-15T00:48:31.045Z,45
2014-07-15T00:48:47.391Z,45
2014-07-15T00:49:04.984Z,45
2014-07-15T00:49:23.203Z,45
2014-07-15T00:49:41.424Z,45
2014-07-15T00:49:59.658Z,45
2014-07-15T00:50:17.236Z,45
2014-07-15T00:50:35.455Z,45
2014-07-15T00:50:53.191Z,45
2014-07-15T00:51:10.160Z,45
2014-07-15T00:51:28.379Z,45
2014-07-15T00:51:46.600Z,45
2014-07-15T00:52:02.943Z,45
2014-07-15T00:52:21.162Z,45
2014-07-15T00:52:38.756Z,45
2014-07-15T00:52:56.992Z,45
2014-07-15T00:53:14.586Z,45
2014-07-15T00:53:30.930Z,45
2014-07-15T00:53:48.526Z,45
2014-07-15T00:54:06.119Z,45
2014-07-15T00:54:23.713Z,45
2014-07-15T00:54:41.307Z,45
2014-07-15T00:54:59.543Z,45
2014-07-15T00:55:17.762Z,45
2014-07-15T00:55:35.981Z,45
2014-07-15T00:55:53.576Z,45
2014-07-15T00:56:11.811Z,45
2014-07-15T00:56:30.030Z,45
2014-07-15T00:56:48.248Z,45
2014-07-15T00:57:04.594Z,45
2014-07-15T00:57:22.813Z,45
2014-07-15T00:57:41.032Z,45
2014-07-15T00:57:58.643Z,45
2014-07-15T00:58:16.862Z,45
2014-07-15T00:58:35.080Z,45
2014-07-15T00:58:53.440Z,45
2014-07-15T00:59:11.036Z,45
2014-07-15T00:59:28.629Z,45
2014-07-15T00:59:46.223Z,45
2014-07-15T01:00:04.444Z,45
2014-07-15T01:00:22.663Z,45
2014-07-15T01:00:40.897Z,45
2014-07-15T01:00:58.491Z,45
2014-07-15T01:01:16.086Z,45
2014-07-15T01:01:34.305Z,45
2014-07-15T01:01:51.899Z,45
2014-07-15T01:02:09.495Z,45
2014-07-15T01:02:27.713Z,45
2014-07-15T01:02:45.307Z,45
2014-07-15T01:03:03.526Z,45
2014-07-15T01:03:21.762Z,45
2014-07-15T01:03:39.981Z,45
2014-07-15T01:03:57.575Z,45
2014-07-15T01:04:15.811Z,45
2014-07-15T01:04:34.030Z,45
2014-07-15T01:04:50.999Z,45
2014-07-15T01:05:08.592Z,45
2014-07-15T01:05:26.813Z,45
2014-07-15T01:05:45.173Z,45
2014-07-15T01:06:02.766Z,45
2014-07-15T01:06:21.003Z,45
2014-07-15T01:06:38.596Z,45
2014-07-15T01:06:56.815Z,45
2014-07-15T01:07:14.409Z,45
2014-07-15T01:07:31.380Z,45
2014-07-15T01:07:48.973Z,45
2014-07-15T01:08:06.583Z,45
2014-07-15T01:08:24.804Z,45
2014-07-15T01:08:42.397Z,45
2014-07-15T01:08:59.991Z,45
2014-07-15T01:09:17.585Z,45
2014-07-15T01:09:34.696Z,45
2014-07-15T01:09:52.915Z,45
2014-07-15T01:10:09.884Z,45
2014-07-15T01:10:28.104Z,45
2014-07-15T01:10:44.448Z,45
2014-07-15T01:11:02.042Z,45
2014-07-15T01:11:19.636Z,45
2014-07-15T01:11:37.857Z,45
2014-07-15T01:11:55.451Z,45
2014-07-15T01:12:13.670Z,45
2014-07-15T01:12:31.264Z,45
2014-07-15T01:12:48.858Z,45
2014-07-15T01:13:07.093Z,45
2014-07-15T01:13:25.312Z,45
2014-07-15T01:13:42.282Z,45
2014-07-15T01:13:59.876Z,45
2014-07-15T01:14:18.095Z,45
2014-07-15T01:14:35.689Z,45
2014-07-15T01:14:53.284Z,45
2014-07-15T01:15:10.878Z,45
2014-07-15T01:15:28.472Z,45
2014-07-15T01:15:46.691Z,45
2014-07-15T01:16:04.927Z,45
2014-07-15T01:16:23.146Z,45
2014-07-15T01:16:41.380Z,45
2014-07-15T01:16:58.976Z,45
2014-07-15T01:17:16.710Z,45
2014-07-15T01:17:34.304Z,45
2014-07-15T01:17:52.523Z,45
2014-07-15T01:18:10.743Z,45
2014-07-15T01:18:28.337Z,45
2014-07-15T01:18:46.556Z,45
2014-07-15T01:19:04.153Z,45
2014-07-15T01:19:22.387Z,45
2014-07-15T01:19:40.731Z,45
2014-07-15T01:19:58.950Z,45
2014-07-15T01:20:17.186Z,45
2014-07-15T01:20:35.405Z,45
2014-07-15T01:20:53.014Z,45
2014-07-15T01:21:11.234Z,45
2014-07-15T01:21:29.468Z,45
2014-07-15T01:21:47.687Z,45
2014-07-15T01:22:05.921Z,45
2014-07-15T01:22:24.143Z,45
2014-07-15T01:22:41.737Z,45
2014-07-15T01:22:59.331Z,45
2014-07-15T01:23:16.286Z,45
2014-07-15T01:23:34.520Z,45
2014-07-15T01:23:52.739Z,45
2014-07-15T01:24:10.958Z,45
2014-07-15T01:24:28.552Z,45
2014-07-15T01:24:46.146Z,45
2014-07-15T01:25:03.740Z,45
2014-07-15T01:25:21.337Z,45
2014-07-15T01:25:38.930Z,45
2014-07-15T01:25:56.524Z,45
2014-07-15T01:26:14.758Z,45
2014-07-15T01:26:32.987Z,45
2014-07-15T01:26:51.222Z,45
2014-07-15T01:27:09.440Z,45
2014-07-15T01:27:27.706Z,45
2014-07-15T01:27:45.300Z,45
2014-07-15T01:28:02.894Z,45
2014-07-15T01:28:20.628Z,45
2014-07-15T01:28:38.249Z,45
2014-07-15T01:28:55.843Z,45
2014-07-15T01:29:14.062Z,45
2014-07-15T01:29:32.341Z,45
2014-07-15T01:29:48.685Z,45
2014-07-15T01:30:06.278Z,45
2014-07-15T01:30:23.872Z,45
2014-07-15T01:30:42.141Z,45
2014-07-15T01:30:59.750Z,45
2014-07-15T01:31:17.344Z,45
2014-07-15T01:31:34.938Z,45
2014-07-15T01:31:52.560Z,45
2014-07-15T01:32:10.794Z,45
2014-07-15T01:32:29.013Z,45
2014-07-15T01:32:47.250Z,45
2014-07-15T01:33:04.844Z,45
2014-07-15T01:33:23.063Z,45
2014-07-15T01:33:40.172Z,45
2014-07-15T01:33:57.797Z,45
2014-07-15T01:34:16.015Z,45
2014-07-15T01:34:32.984Z,45
2014-07-15T01:34:50.096Z,45
2014-07-15T01:35:07.690Z,45
2014-07-15T01:35:24.799Z,45
2014-07-15T01:35:43.018Z,45
2014-07-15T01:36:01.254Z,45
2014-07-15T01:36:18.847Z,45
2014-07-15T01:36:36.441Z,45
2014-07-15T01:36:54.670Z,45
2014-07-15T01:37:12.264Z,45
2014-07-15T01:37:30.482Z,45
2014-07-15T01:37:48.076Z,45
2014-07-15T01:38:05.677Z,45
2014-07-15T01:38:23.896Z,45
2014-07-15T01:38:41.489Z,45
2014-07-15T01:38:59.731Z,45
2014-07-15T01:39:17.324Z,45
2014-07-15T01:39:35.543Z,45
2014-07-15T01:39:53.137Z,45
2014-07-15T01:40:11.364Z,45
2014-07-15T01:40:29.582Z,45
2014-07-15T01:40:47.801Z,45
2014-07-15T01:41:05.401Z,45
2014-07-15T01:41:22.995Z,45
2014-07-15T01:41:41.213Z,45
2014-07-15T01:41:58.807Z,45
2014-07-15T01:42:16.406Z,45
2014-07-15T01:42:34.000Z,45
2014-07-15T01:42:52.218Z,45
2014-07-15T01:43:10.457Z,45
2014-07-15T01:43:28.676Z,45
2014-07-15T01:43:46.910Z,46
2014-07-15T01:44:04.644Z,45
2014-07-15T01:44:22.867Z,45
2014-07-15T01:44:40.586Z,45
2014-07-15T01:44:58.820Z,46
2014-07-15T01:45:16.418Z,46
2014-07-15T01:45:34.637Z,46
2014-07-15T01:45:52.246Z,46
2014-07-15T01:46:10.468Z,45
2014-07-15T01:46:27.437Z,46
2014-07-15T01:46:45.030Z,46
2014-07-15T01:47:02.624Z,46
2014-07-15T01:47:20.847Z,46
2014-07-15T01:47:39.066Z,46
2014-07-15T01:47:57.284Z,46
2014-07-15T01:48:14.881Z,46
2014-07-15T01:48:31.850Z,46
2014-07-15T01:48:49.444Z,46
2014-07-15T01:49:07.037Z,46
2014-07-15T01:49:24.649Z,46
2014-07-15T01:49:42.227Z,46
2014-07-15T01:50:00.446Z,46
2014-07-15T01:50:18.039Z,46
2014-07-15T01:50:36.277Z,46
2014-07-15T01:50:53.855Z,46
2014-07-15T01:51:12.089Z,46
2014-07-15T01:51:30.311Z,46
2014-07-15T01:51:48.545Z,46
2014-07-15T01:52:06.764Z,46
2014-07-15T01:52:23.733Z,46
2014-07-15T01:52:41.954Z,46
2014-07-15T01:53:00.172Z,46
2014-07-15T01:53:18.407Z,47
2014-07-15T01:53:36.628Z,46
2014-07-15T01:53:54.863Z,46
2014-07-15T01:54:11.332Z,47
2014-07-15T01:54:28.925Z,47
2014-07-15T01:54:47.146Z,47
2014-07-15T01:55:05.365Z,46
2014-07-15T01:55:22.959Z,47
2014-07-15T01:55:40.555Z,46
2014-07-15T01:55:57.524Z,46
2014-07-15T01:56:15.883Z,46
2014-07-15T01:56:34.102Z,46
2014-07-15T01:56:52.323Z,47
2014-07-15T01:57:09.917Z,47
2014-07-15T01:57:28.276Z,47
2014-07-15T01:57:45.872Z,47
2014-07-15T01:58:03.466Z,47
2014-07-15T01:58:21.684Z,47
2014-07-15T01:58:39.919Z,46
2014-07-15T01:58:57.499Z,46
2014-07-15T01:59:15.733Z,47
2014-07-15T01:59:33.952Z,46
2014-07-15T01:59:51.548Z,46
2014-07-15T02:00:09.141Z,46
2014-07-15T02:00:26.110Z,46
2014-07-15T02:00:43.079Z,46
2014-07-15T02:01:00.675Z,46
2014-07-15T02:01:19.034Z,46
2014-07-15T02:01:36.612Z,46
2014-07-15T02:01:54.206Z,46
2014-07-15T02:02:12.442Z,46
2014-07-15T02:02:28.770Z,46
2014-07-15T02:02:47.005Z,46
2014-07-15T02:03:04.600Z,46
2014-07-15T02:03:22.193Z,46
2014-07-15T02:03:40.428Z,47
2014-07-15T02:03:58.646Z,46
2014-07-15T02:04:16.883Z,46
2014-07-15T02:04:35.102Z,47
2014-07-15T02:04:52.695Z,46
2014-07-15T02:05:10.916Z,47
2014-07-15T02:05:29.150Z,46
2014-07-15T02:05:46.744Z,47
2014-07-15T02:06:03.713Z,46
2014-07-15T02:06:21.309Z,46
2014-07-15T02:06:38.402Z,46
2014-07-15T02:06:56.012Z,47
2014-07-15T02:07:13.608Z,46
2014-07-15T02:07:31.201Z,47
2014-07-15T02:07:49.420Z,46
2014-07-15T02:08:07.639Z,47
2014-07-15T02:08:25.860Z,47
2014-07-15T02:08:44.094Z,46
2014-07-15T02:09:02.313Z,46
2014-07-15T02:09:19.284Z,46
2014-07-15T02:09:37.503Z,46
2014-07-15T02:09:55.738Z,46
2014-07-15T02:10:13.956Z,46
2014-07-15T02:10:31.552Z,46
2014-07-15T02:10:49.146Z,46
2014-07-15T02:11:06.740Z,46
2014-07-15T02:11:24.976Z,46
2014-07-15T02:11:43.195Z,46
2014-07-15T02:12:01.413Z,46
2014-07-15T02:12:19.007Z,46
2014-07-15T02:12:37.243Z,46
2014-07-15T02:12:55.461Z,46
2014-07-15T02:13:13.680Z,46
2014-07-15T02:13:31.917Z,46
2014-07-15T02:13:50.136Z,46
2014-07-15T02:14:07.105Z,46
2014-07-15T02:14:24.824Z,46
2014-07-15T02:14:42.419Z,46
2014-07-15T02:15:00.638Z,46
2014-07-15T02:15:17.607Z,47
2014-07-15T02:15:35.843Z,46
2014-07-15T02:15:53.437Z,47
2014-07-15T02:16:11.031Z,47
2014-07-15T02:16:29.250Z,47
2014-07-15T02:16:46.986Z,47
2014-07-15T02:17:05.205Z,46
2014-07-15T02:17:22.798Z,46
2014-07-15T02:17:40.535Z,47
2014-07-15T02:17:58.769Z,46
2014-07-15T02:18:15.113Z,46
2014-07-15T02:18:32.707Z,46
2014-07-15T02:18:50.927Z,46
2014-07-15T02:19:08.662Z,46
2014-07-15T02:19:26.881Z,46
2014-07-15T02:19:43.224Z,46
2014-07-15T02:20:00.819Z,46
2014-07-15T02:20:19.163Z,46
2014-07-15T02:20:36.757Z,46
2014-07-15T02:20:54.369Z,46
2014-07-15T02:21:12.588Z,46
2014-07-15T02:21:29.556Z,46
2014-07-15T02:21:47.775Z,46
2014-07-15T02:22:05.996Z,46
2014-07-15T02:22:23.590Z,46
2014-07-15T02:22:41.824Z,47
2014-07-15T02:22:59.420Z,47
2014-07-15T02:23:17.014Z,46
2014-07-15T02:23:34.607Z,47
2014-07-15T02:23:51.576Z,47
2014-07-15T02:24:09.796Z,47
2014-07-15T02:24:28.015Z,47
2014-07-15T02:24:45.624Z,47
2014-07-15T02:25:03.846Z,47
2014-07-15T02:25:20.814Z,47
2014-07-15T02:25:39.174Z,47
2014-07-15T02:25:57.393Z,47
2014-07-15T02:26:13.737Z,47
2014-07-15T02:26:31.972Z,47
2014-07-15T02:26:50.315Z,47
2014-07-15T02:27:07.912Z,47
2014-07-15T02:27:26.131Z,47
2014-07-15T02:27:43.725Z,47
2014-07-15T02:28:01.959Z,47
2014-07-15T02:28:19.555Z,47
2014-07-15T02:28:37.774Z,47
2014-07-15T02:28:55.367Z,47
2014-07-15T02:29:13.588Z,47
2014-07-15T02:29:31.822Z,47
2014-07-15T02:29:49.416Z,47
2014-07-15T02:30:07.651Z,47
2014-07-15T02:30:25.870Z,47
2014-07-15T02:30:44.214Z,47
2014-07-15T02:31:01.808Z,47
2014-07-15T02:31:18.780Z,47
2014-07-15T02:31:36.998Z,47
2014-07-15T02:31:55.217Z,47
2014-07-15T02:32:13.451Z,47
2014-07-15T02:32:31.032Z,47
2014-07-15T02:32:48.625Z,47
2014-07-15T02:33:06.860Z,47
2014-07-15T02:33:25.080Z,47
2014-07-15T02:33:42.674Z,47
2014-07-15T02:34:00.252Z,47
2014-07-15T02:34:17.237Z,47
2014-07-15T02:34:35.457Z,47
2014-07-15T02:34:53.676Z,47
2014-07-15T02:35:10.645Z,47
2014-07-15T02:35:28.866Z,47
2014-07-15T02:35:46.459Z,47
2014-07-15T02:36:04.069Z,47
2014-07-15T02:36:21.663Z,47
2014-07-15T02:36:39.883Z,47
2014-07-15T02:36:57.477Z,47
2014-07-15T02:37:15.696Z,47
2014-07-15T02:37:33.432Z,47
2014-07-15T02:37:51.651Z,47
2014-07-15T02:38:09.885Z,47
2014-07-15T02:38:28.104Z,47
2014-07-15T02:38:46.325Z,47
2014-07-15T02:39:04.559Z,47
2014-07-15T02:39:22.153Z,47
2014-07-15T02:39:40.374Z,47
2014-07-15T02:39:58.592Z,47
2014-07-15T02:40:15.561Z,47
2014-07-15T02:40:33.155Z,47
2014-07-15T02:40:50.751Z,47
2014-07-15T02:41:08.969Z,47
2014-07-15T02:41:26.704Z,47
2014-07-15T02:41:44.300Z,47
2014-07-15T02:42:02.518Z,47
2014-07-15T02:42:20.737Z,47
2014-07-15T02:42:39.096Z,47
2014-07-15T02:42:57.317Z,47
2014-07-15T02:43:15.552Z,47
2014-07-15T02:43:33.770Z,47
2014-07-15T02:43:51.991Z,47
2014-07-15T02:44:09.585Z,48
2014-07-15T02:44:27.179Z,48
2014-07-15T02:44:44.147Z,48
2014-07-15T02:45:02.368Z,48
2014-07-15T02:45:19.962Z,48
2014-07-15T02:45:36.931Z,48
2014-07-15T02:45:54.526Z,48
2014-07-15T02:46:12.745Z,48
2014-07-15T02:46:30.964Z,48
2014-07-15T02:46:48.558Z,48
2014-07-15T02:47:05.669Z,48
2014-07-15T02:47:23.888Z,48
2014-07-15T02:47:42.122Z,48
2014-07-15T02:47:59.718Z,48
2014-07-15T02:48:16.687Z,48
2014-07-15T02:48:33.671Z,48
2014-07-15T02:48:51.280Z,48
2014-07-15T02:49:09.501Z,48
2014-07-15T02:49:27.860Z,48
2014-07-15T02:49:44.204Z,48
2014-07-15T02:50:02.439Z,48
2014-07-15T02:50:19.394Z,48
2014-07-15T02:50:36.362Z,48
2014-07-15T02:50:54.597Z,48
2014-07-15T02:51:12.193Z,48
2014-07-15T02:51:30.411Z,48
2014-07-15T02:51:48.021Z,48
2014-07-15T02:52:05.614Z,48
2014-07-15T02:52:23.851Z,48
2014-07-15T02:52:42.070Z,48
2014-07-15T02:52:59.038Z,48
2014-07-15T02:53:17.275Z,48
2014-07-15T02:53:34.868Z,48
2014-07-15T02:53:52.462Z,48
2014-07-15T02:54:10.681Z,48
2014-07-15T02:54:28.292Z,48
2014-07-15T02:54:45.886Z,48
2014-07-15T02:55:03.480Z,48
2014-07-15T02:55:21.701Z,48
2014-07-15T02:55:39.935Z,48
2014-07-15T02:55:57.529Z,48
2014-07-15T02:56:15.747Z,48
2014-07-15T02:56:33.984Z,47
2014-07-15T02:56:52.203Z,47
2014-07-15T02:57:10.437Z,47
2014-07-15T02:57:28.658Z,47
2014-07-15T02:57:46.892Z,47
2014-07-15T02:58:05.111Z,47
2014-07-15T02:58:22.080Z,47
2014-07-15T02:58:40.300Z,47
2014-07-15T02:58:57.910Z,47
2014-07-15T02:59:15.503Z,47
2014-07-15T02:59:33.099Z,47
2014-07-15T02:59:50.084Z,47
2014-07-15T03:00:07.052Z,47
2014-07-15T03:00:24.646Z,47
2014-07-15T03:00:41.633Z,47
2014-07-15T03:00:59.852Z,48
2014-07-15T03:01:17.446Z,48
2014-07-15T03:01:35.680Z,48
2014-07-15T03:01:53.901Z,48
2014-07-15T03:02:12.120Z,48
2014-07-15T03:02:29.729Z,48
2014-07-15T03:02:47.949Z,48
2014-07-15T03:03:05.558Z,48
2014-07-15T03:03:23.152Z,48
2014-07-15T03:03:41.386Z,48
2014-07-15T03:03:58.982Z,48
2014-07-15T03:04:17.201Z,48
2014-07-15T03:04:34.795Z,48
2014-07-15T03:04:51.765Z,48
2014-07-15T03:05:10.000Z,48
2014-07-15T03:05:28.219Z,48
2014-07-15T03:05:45.828Z,48
2014-07-15T03:06:04.050Z,48
2014-07-15T03:06:21.659Z,48
2014-07-15T03:06:39.878Z,48
2014-07-15T03:06:57.489Z,48
2014-07-15T03:07:15.708Z,48
2014-07-15T03:07:33.942Z,48
2014-07-15T03:07:50.911Z,48
2014-07-15T03:08:08.507Z,48
2014-07-15T03:08:26.741Z,48
2014-07-15T03:08:44.335Z,48
2014-07-15T03:09:02.556Z,48
2014-07-15T03:09:20.149Z,48
2014-07-15T03:09:38.368Z,48
2014-07-15T03:09:56.603Z,48
2014-07-15T03:10:14.822Z,48
2014-07-15T03:10:33.057Z,48
2014-07-15T03:10:51.416Z,48
2014-07-15T03:11:09.153Z,48
2014-07-15T03:11:26.747Z,48
2014-07-15T03:11:44.966Z,48
2014-07-15T03:12:03.200Z,48
2014-07-15T03:12:21.420Z,48
2014-07-15T03:12:38.389Z,48
2014-07-15T03:12:56.623Z,48
2014-07-15T03:13:14.844Z,48
2014-07-15T03:13:33.078Z,48
2014-07-15T03:13:51.438Z,48
2014-07-15T03:14:08.391Z,48
2014-07-15T03:14:26.627Z,48
2014-07-15T03:14:44.846Z,48
2014-07-15T03:15:02.440Z,48
2014-07-15T03:15:20.052Z,48
2014-07-15T03:15:37.646Z,48
2014-07-15T03:15:55.240Z,48
2014-07-15T03:16:13.474Z,48
2014-07-15T03:16:31.695Z,48
2014-07-15T03:16:49.929Z,48
2014-07-15T03:17:06.898Z,48
2014-07-15T03:17:25.119Z,48
2014-07-15T03:17:43.353Z,48
2014-07-15T03:18:01.572Z,48
2014-07-15T03:18:19.181Z,48
2014-07-15T03:18:36.916Z,48
2014-07-15T03:18:55.135Z,48
2014-07-15T03:19:13.370Z,48
2014-07-15T03:19:30.965Z,48
2014-07-15T03:19:48.575Z,48
2014-07-15T03:20:06.168Z,48
2014-07-15T03:20:23.762Z,48
2014-07-15T03:20:42.000Z,48
2014-07-15T03:21:00.218Z,48
2014-07-15T03:21:17.812Z,48
2014-07-15T03:21:36.205Z,48
2014-07-15T03:21:53.783Z,48
2014-07-15T03:22:11.377Z,48
2014-07-15T03:22:28.986Z,48
2014-07-15T03:22:47.206Z,48
2014-07-15T03:23:04.799Z,48
2014-07-15T03:23:22.409Z,48
2014-07-15T03:23:40.630Z,48
2014-07-15T03:23:57.598Z,48
2014-07-15T03:24:15.833Z,48
2014-07-15T03:24:33.426Z,48
2014-07-15T03:24:51.647Z,48
2014-07-15T03:25:09.882Z,48
2014-07-15T03:25:26.850Z,48
2014-07-15T03:25:44.571Z,48
2014-07-15T03:26:02.180Z,49
2014-07-15T03:26:19.774Z,49
2014-07-15T03:26:37.368Z,49
2014-07-15T03:26:55.590Z,49
2014-07-15T03:27:13.824Z,49
2014-07-15T03:27:32.183Z,49
2014-07-15T03:27:50.403Z,49
2014-07-15T03:28:07.997Z,49
2014-07-15T03:28:25.591Z,49
2014-07-15T03:28:42.561Z,49
2014-07-15T03:29:00.921Z,49
2014-07-15T03:29:18.515Z,49
2014-07-15T03:29:36.749Z,49
2014-07-15T03:29:54.971Z,49
2014-07-15T03:30:13.205Z,49
2014-07-15T03:30:31.424Z,49
2014-07-15T03:30:49.659Z,49
2014-07-15T03:31:07.878Z,49
2014-07-15T03:31:26.112Z,48
2014-07-15T03:31:44.331Z,49
2014-07-15T03:32:00.677Z,48
2014-07-15T03:32:18.286Z,49
2014-07-15T03:32:35.880Z,49
2014-07-15T03:32:52.851Z,49
2014-07-15T03:33:10.444Z,49
2014-07-15T03:33:26.913Z,48
2014-07-15T03:33:44.523Z,48
2014-07-15T03:34:02.759Z,48
2014-07-15T03:34:19.728Z,48
2014-07-15T03:34:37.946Z,48
2014-07-15T03:34:55.556Z,48
2014-07-15T03:35:13.777Z,48
2014-07-15T03:35:32.011Z,48
2014-07-15T03:35:49.605Z,48
2014-07-15T03:36:07.841Z,48
2014-07-15T03:36:25.435Z,48
2014-07-15T03:36:43.044Z,48
2014-07-15T03:37:00.779Z,48
2014-07-15T03:37:18.374Z,48
2014-07-15T03:37:36.609Z,48
2014-07-15T03:37:54.218Z,48
2014-07-15T03:38:11.189Z,48
2014-07-15T03:38:29.423Z,48
2014-07-15T03:38:47.642Z,48
2014-07-15T03:39:05.876Z,49
2014-07-15T03:39:23.472Z,49
2014-07-15T03:39:41.097Z,49
2014-07-15T03:39:59.316Z,49
2014-07-15T03:40:17.053Z,49
2014-07-15T03:40:34.663Z,49
2014-07-15T03:40:52.256Z,49
2014-07-15T03:41:09.866Z,49
2014-07-15T03:41:27.461Z,49
2014-07-15T03:41:45.071Z,49
2014-07-15T03:42:02.790Z,49
2014-07-15T03:42:20.399Z,49
2014-07-15T03:42:37.370Z,49
2014-07-15T03:42:55.604Z,49
2014-07-15T03:43:13.963Z,49
2014-07-15T03:43:32.199Z,49
2014-07-15T03:43:49.793Z,49
2014-07-15T03:44:07.386Z,49
2014-07-15T03:44:24.996Z,49
2014-07-15T03:44:43.232Z,49
2014-07-15T03:45:01.451Z,49
2014-07-15T03:45:19.060Z,49
2014-07-15T03:45:36.656Z,49
2014-07-15T03:45:54.875Z,49
2014-07-15T03:46:12.484Z,49
2014-07-15T03:46:30.078Z,49
2014-07-15T03:46:48.314Z,49
2014-07-15T03:47:06.549Z,49
2014-07-15T03:47:24.142Z,49
2014-07-15T03:47:41.738Z,49
2014-07-15T03:47:59.347Z,49
2014-07-15T03:48:16.316Z,49
2014-07-15T03:48:34.535Z,49
2014-07-15T03:48:52.772Z,49
2014-07-15T03:49:10.366Z,49
2014-07-15T03:49:28.100Z,49
2014-07-15T03:49:45.711Z,49
2014-07-15T03:50:03.305Z,49
2014-07-15T03:50:21.539Z,49
2014-07-15T03:50:39.758Z,49
2014-07-15T03:50:57.369Z,48
2014-07-15T03:51:14.338Z,48
2014-07-15T03:51:32.572Z,48
2014-07-15T03:51:49.543Z,48
2014-07-15T03:52:07.137Z,48
2014-07-15T03:52:24.746Z,48
2014-07-15T03:52:42.980Z,49
2014-07-15T03:53:01.201Z,48
2014-07-15T03:53:18.811Z,48
2014-07-15T03:53:36.404Z,48
2014-07-15T03:53:54.641Z,49
2014-07-15T03:54:13.000Z,49
2014-07-15T03:54:29.969Z,49
2014-07-15T03:54:48.203Z,49
2014-07-15T03:55:05.925Z,49
2014-07-15T03:55:23.534Z,49
2014-07-15T03:55:41.128Z,49
2014-07-15T03:55:58.739Z,49
2014-07-15T03:56:16.958Z,49
2014-07-15T03:56:33.943Z,49
2014-07-15T03:56:52.177Z,49
2014-07-15T03:57:09.773Z,49
2014-07-15T03:57:27.991Z,49
2014-07-15T03:57:46.226Z,49
2014-07-15T03:58:03.822Z,49
2014-07-15T03:58:22.056Z,49
2014-07-15T03:58:40.275Z,48
2014-07-15T03:58:58.509Z,49
2014-07-15T03:59:16.119Z,48
2014-07-15T03:59:34.338Z,48
2014-07-15T03:59:51.948Z,48
2014-07-15T04:00:10.168Z,48
2014-07-15T04:00:27.153Z,48
2014-07-15T04:00:44.121Z,48
2014-07-15T04:01:01.717Z,48
2014-07-15T04:01:19.327Z,48
2014-07-15T04:01:37.545Z,49
2014-07-15T04:01:55.780Z,48
2014-07-15T04:02:14.017Z,48
2014-07-15T04:02:31.611Z,48
2014-07-15T04:02:49.845Z,48
2014-07-15T04:03:08.064Z,48
2014-07-15T04:03:25.659Z,48
2014-07-15T04:03:43.268Z,48
2014-07-15T04:04:00.987Z,48
2014-07-15T04:04:18.599Z,48
2014-07-15T04:04:35.568Z,49
2014-07-15T04:04:53.787Z,49
2014-07-15T04:05:12.021Z,49
2014-07-15T04:05:30.242Z,49
2014-07-15T04:05:48.476Z,49
2014-07-15T04:06:06.836Z,49
2014-07-15T04:06:24.430Z,49
2014-07-15T04:06:42.665Z,49
2014-07-15T04:07:00.258Z,49
2014-07-15T04:07:17.868Z,49
2014-07-15T04:07:36.105Z,49
2014-07-15T04:07:54.324Z,49
2014-07-15T04:08:12.558Z,49
2014-07-15T04:08:30.778Z,49
2014-07-15T04:08:48.387Z,49
2014-07-15T04:09:05.981Z,49
2014-07-15T04:09:24.216Z,49
2014-07-15T04:09:42.452Z,49
2014-07-15T04:10:00.046Z,49
2014-07-15T04:10:17.655Z,49
2014-07-15T04:10:35.251Z,50
2014-07-15T04:10:53.485Z,50
2014-07-15T04:11:11.704Z,50
2014-07-15T04:11:29.313Z,50
2014-07-15T04:11:47.534Z,50
2014-07-15T04:12:05.143Z,50
2014-07-15T04:12:22.737Z,50
2014-07-15T04:12:40.974Z,50
2014-07-15T04:12:59.208Z,50
2014-07-15T04:13:16.177Z,50
2014-07-15T04:13:34.411Z,50
2014-07-15T04:13:52.008Z,50
2014-07-15T04:14:10.242Z,50